Terminal Aerodrome Forecast
Issued by NWS

Home | Current Version | Previous Version | Text Only | Print | Product List | Glossary On
Versions: 1 2 3 4 5 6 7 8 9 10 11 12 13 14 15
000
FTUS45 KRIW 281100
TAFBPI
TAF
KBPI 281122Z 2812/0112 VRB05KT 5SM -SN BKN024
     FM281900 16007KT P6SM VCSH BKN030
     FM010000 16008KT P6SM SCT020 BKN035
     FM010700 VRB05KT P6SM OVC040=

USA.gov is the U.S. government's official web portal to all federal, state and local government web resources and services.